Alma, Missouri
Current Conditions -  °F | °C
As of 9:58 AM on Thursday 30 Oct 2014 (Local Time) from KSZL Reporting Station
Broken Clouds Broken Clouds  
Wind Chill: 53°   Ceiling: 11000
Heat Index: 53°   Visibility: 10mi
Dew Point: 43°   Wind: 12mph
Humidity: 68%   Direction: 220°SW
Pressure: 30.04"   Gusts: NA
Location:  39.1°N, 93.55°W
Report Text: KSZL 301458Z 22010KT 10SM BKN110 12/06 A3004 RMK AO2A SLP177 60000 T01190061 53005 $
Loading
Personal Weather Stations






























Interactive Weather Map
Tropical Storm Tracking
New forecast layout! Learn more

10-Day Weather Forecast

Advertisements
Track Severe Weather on mobile